createdAt,value
2022-12-04T08:04:57.381Z,1.83
2022-12-04T08:07:35.355Z,1.83
2022-12-04T08:10:13.414Z,1.83
2022-12-04T08:12:50.549Z,1.86
2022-12-04T08:15:28.274Z,1.87
2022-12-04T08:18:05.544Z,1.84
2022-12-04T08:20:44.985Z,1.87
2022-12-04T08:23:22.193Z,1.84
2022-12-04T08:26:02.490Z,1.84
2022-12-04T08:28:40.853Z,1.87
2022-12-04T08:31:21.071Z,1.85
2022-12-04T08:34:01.082Z,1.88
2022-12-04T08:36:40.545Z,1.90
2022-12-04T08:39:17.754Z,1.87
2022-12-04T08:41:57.162Z,1.88
2022-12-04T08:44:34.642Z,1.86
2022-12-04T08:47:11.454Z,1.86
2022-12-04T08:49:48.604Z,1.87
2022-12-04T08:56:48.711Z,1.93
2022-12-04T08:59:26.512Z,1.91
2022-12-04T09:02:04.237Z,1.89
2022-12-04T09:04:42.077Z,1.91
2022-12-04T09:07:19.924Z,1.89
2022-12-04T09:09:58.110Z,1.89
2022-12-04T09:12:38.586Z,1.91
2022-12-04T09:15:16.555Z,1.93
2022-12-04T09:17:54.384Z,1.92
2022-12-04T09:20:32.904Z,1.91
2022-12-04T09:23:14.391Z,1.93
2022-12-04T09:25:53.372Z,1.93
2022-12-04T09:28:33.351Z,1.95
2022-12-04T09:31:11.573Z,1.96
2022-12-04T09:33:49.991Z,1.94
2022-12-04T09:36:27.680Z,1.97
2022-12-04T09:39:05.141Z,1.97
2022-12-04T09:42:12.414Z,2.02
2022-12-04T09:45:02.295Z,2.05
2022-12-04T09:47:47.406Z,2.05
2022-12-04T09:50:28.772Z,2.00
2022-12-04T09:53:13.874Z,2.05
2022-12-04T09:56:02.964Z,2.07
2022-12-04T09:58:49.448Z,2.06
2022-12-04T10:01:39.634Z,2.05
2022-12-04T10:04:18.528Z,2.07
2022-12-04T10:07:06.077Z,2.10
2022-12-04T10:09:54.296Z,2.09
2022-12-04T10:12:44.354Z,2.10
2022-12-04T10:15:35.931Z,2.10
2022-12-04T10:18:35.906Z,2.16
2022-12-04T10:21:39.615Z,2.15
2022-12-04T10:24:43.625Z,2.17
2022-12-04T10:27:29.594Z,2.18
2022-12-04T10:30:17.760Z,2.15
2022-12-04T10:33:03.533Z,2.17
2022-12-04T10:35:48.344Z,2.17
2022-12-04T10:38:39.093Z,2.19
2022-12-04T10:41:25.934Z,2.16
2022-12-04T10:44:03.699Z,2.15
2022-12-04T10:46:45.741Z,2.17
2022-12-04T10:49:28.065Z,2.18
2022-12-04T10:52:08.757Z,2.17
2022-12-04T10:54:52.886Z,2.19
2022-12-04T10:57:39.393Z,2.20
2022-12-04T11:00:31.628Z,2.21
2022-12-04T11:03:25.794Z,2.21
2022-12-04T11:06:05.555Z,2.18
2022-12-04T11:08:53.762Z,2.20
2022-12-04T11:11:34.635Z,2.20
2022-12-04T11:14:19.904Z,2.17
2022-12-04T11:17:07.641Z,2.19
2022-12-04T11:19:45.003Z,2.20
2022-12-04T11:22:23.519Z,2.20
2022-12-04T11:25:03.899Z,2.21
2022-12-04T11:27:41.988Z,2.23
2022-12-04T11:30:25.382Z,2.21
2022-12-04T11:33:03.439Z,2.24
2022-12-04T11:35:40.749Z,2.20
2022-12-04T11:38:24.603Z,2.22
2022-12-04T11:41:11.793Z,2.17
2022-12-04T11:43:59.360Z,2.19
2022-12-04T11:46:39.420Z,2.17
2022-12-04T11:49:26.808Z,2.16
2022-12-04T11:52:25.920Z,2.17
2022-12-04T11:55:15.960Z,2.18
2022-12-04T11:58:20.449Z,2.20
2022-12-04T12:01:15.743Z,2.19
2022-12-04T12:04:36.444Z,2.17
2022-12-04T12:07:33.574Z,2.20
2022-12-04T12:10:17.908Z,2.19
2022-12-04T12:13:10.534Z,2.19
2022-12-04T12:15:57.028Z,2.20
2022-12-04T12:19:02.232Z,2.20
2022-12-04T12:21:51.295Z,2.21
2022-12-04T12:24:35.685Z,2.17
2022-12-04T12:27:48.977Z,2.15
2022-12-04T12:30:33.945Z,2.15
2022-12-04T12:33:23.273Z,2.13
2022-12-04T12:36:09.820Z,2.10
2022-12-04T12:38:55.169Z,2.12
2022-12-04T12:41:42.786Z,2.12
2022-12-04T12:44:27.899Z,2.15
2022-12-04T12:47:21.967Z,2.16
2022-12-04T12:50:05.513Z,2.18
2022-12-04T12:52:55.219Z,2.18
2022-12-04T12:55:39.835Z,2.18
2022-12-04T12:58:22.741Z,2.16
2022-12-04T13:01:12.695Z,2.19
2022-12-04T13:04:07.392Z,2.20
2022-12-04T13:06:48.319Z,2.21
2022-12-04T13:09:32.768Z,2.19
2022-12-04T13:12:16.839Z,2.19
2022-12-04T13:14:55.341Z,2.19
2022-12-04T13:17:39.965Z,2.17
2022-12-04T13:20:27.644Z,2.17
2022-12-04T13:23:24.722Z,2.18
2022-12-04T13:26:14.799Z,2.17
2022-12-04T13:29:01.052Z,2.15
2022-12-04T13:31:54.205Z,2.14
2022-12-04T13:34:51.944Z,2.13
2022-12-04T13:37:55.066Z,2.14
2022-12-04T13:40:51.600Z,2.15
2022-12-04T13:43:48.682Z,2.12
2022-12-04T13:46:35.814Z,2.11
2022-12-04T13:49:29.709Z,2.10
2022-12-04T13:52:23.276Z,2.10
2022-12-04T13:55:04.813Z,2.10
2022-12-04T13:57:44.501Z,2.10
2022-12-04T14:00:32.645Z,2.08
2022-12-04T14:03:26.773Z,2.10
2022-12-04T14:06:08.375Z,2.10
2022-12-04T14:08:47.705Z,2.09
2022-12-04T14:11:29.193Z,2.06
2022-12-04T14:14:08.358Z,2.06
2022-12-04T14:16:51.110Z,2.05
2022-12-04T14:19:38.306Z,2.06
2022-12-04T14:22:32.655Z,2.07
2022-12-04T14:25:38.443Z,2.07
2022-12-04T14:28:46.443Z,2.07
2022-12-04T14:31:40.835Z,2.10
2022-12-04T14:34:27.852Z,2.06
2022-12-04T14:37:08.080Z,2.06
2022-12-04T14:39:52.044Z,2.05
2022-12-04T14:42:33.623Z,2.02
2022-12-04T14:45:29.206Z,2.02
2022-12-04T14:48:33.826Z,2.03
2022-12-04T14:51:24.144Z,2.02
2022-12-04T14:54:13.859Z,2.03
2022-12-04T14:57:10.534Z,2.02
2022-12-04T14:59:53.161Z,2.04
2022-12-04T15:02:42.742Z,2.02
2022-12-04T15:05:26.589Z,2.02
2022-12-04T15:08:05.840Z,2.07
2022-12-04T15:10:57.426Z,2.01
2022-12-04T15:13:38.998Z,2.01
2022-12-04T15:16:23.349Z,1.98
2022-12-04T15:19:10.582Z,1.98
2022-12-04T15:21:50.276Z,2.00
2022-12-04T15:24:29.510Z,1.99
2022-12-04T15:27:11.523Z,1.98
2022-12-04T15:29:55.214Z,1.98
2022-12-04T15:32:34.766Z,2.02
2022-12-04T15:35:27.512Z,2.03
2022-12-04T15:38:06.516Z,2.02
2022-12-04T15:40:56.817Z,2.05
2022-12-04T15:43:42.509Z,2.07
2022-12-04T15:46:40.911Z,2.06
2022-12-04T15:49:24.755Z,2.02
2022-12-04T15:52:19.835Z,2.05
2022-12-04T15:55:04.114Z,2.02
2022-12-04T15:57:44.911Z,2.01
2022-12-04T16:00:33.906Z,2.02
2022-12-04T16:03:29.660Z,2.04
2022-12-04T16:06:11.412Z,2.03
2022-12-04T16:08:55.328Z,2.02
2022-12-04T16:11:39.117Z,2.05
2022-12-04T16:14:22.832Z,2.02
2022-12-04T16:17:06.554Z,2.03
2022-12-04T16:19:45.372Z,2.07
2022-12-04T16:22:27.690Z,2.05
2022-12-04T16:25:09.616Z,2.06
2022-12-04T16:27:46.987Z,2.07
2022-12-04T16:30:34.997Z,2.02
2022-12-04T16:33:16.555Z,2.06
2022-12-04T16:35:58.104Z,2.01
2022-12-04T16:38:38.786Z,2.02
2022-12-04T16:41:22.186Z,2.05
2022-12-04T16:44:06.238Z,2.07
2022-12-04T16:46:44.487Z,2.06
2022-12-04T16:49:22.300Z,2.09
2022-12-04T16:52:00.765Z,2.08
2022-12-04T16:54:42.557Z,2.10
2022-12-04T16:57:24.152Z,2.11
2022-12-04T17:00:03.567Z,2.10
2022-12-04T17:02:41.808Z,2.09
2022-12-04T17:05:24.688Z,2.10
2022-12-04T17:08:03.184Z,2.12
2022-12-04T17:10:43.891Z,2.12
2022-12-04T17:13:27.047Z,2.13
2022-12-04T17:16:07.200Z,2.13
2022-12-04T17:18:45.682Z,2.12
2022-12-04T17:21:31.929Z,2.13
2022-12-04T17:24:12.646Z,2.11
2022-12-04T17:26:50.731Z,2.13
2022-12-04T17:29:32.361Z,2.16
2022-12-04T17:32:12.631Z,2.13
2022-12-04T17:34:50.818Z,2.16
2022-12-04T17:37:33.002Z,2.16
2022-12-04T17:40:15.876Z,2.18
2022-12-04T17:42:53.541Z,2.17
2022-12-04T17:45:34.739Z,2.13
2022-12-04T17:48:13.260Z,2.15
2022-12-04T17:50:53.959Z,2.15
2022-12-04T17:53:32.008Z,2.17
2022-12-04T17:56:14.917Z,2.17
2022-12-04T17:58:54.033Z,2.15
2022-12-04T18:04:28.476Z,2.19
2022-12-04T18:07:07.790Z,2.20
2022-12-04T18:09:47.039Z,2.20
2022-12-04T18:12:26.181Z,2.22
2022-12-04T18:15:04.406Z,2.19
2022-12-04T18:17:45.541Z,2.23
2022-12-04T18:20:23.833Z,2.22
2022-12-04T18:23:03.151Z,2.24
2022-12-04T18:25:41.350Z,2.24
2022-12-04T18:28:19.620Z,2.22
2022-12-04T18:30:56.970Z,2.23
2022-12-04T18:33:41.085Z,2.27
2022-12-04T18:36:23.001Z,2.26
2022-12-04T18:39:04.916Z,2.25
2022-12-04T18:41:44.215Z,2.24
2022-12-04T18:44:24.054Z,2.25
2022-12-04T18:47:01.952Z,2.27
2022-12-04T18:49:42.791Z,2.28
2022-12-04T18:52:20.552Z,2.28
2022-12-04T18:55:01.690Z,2.26
2022-12-04T18:57:39.750Z,2.28
2022-12-04T19:00:30.801Z,2.28
2022-12-04T19:03:09.081Z,2.29
2022-12-04T19:05:57.195Z,2.30
2022-12-04T19:08:45.120Z,2.28
2022-12-04T19:11:23.350Z,2.27
2022-12-04T19:14:08.333Z,2.27
2022-12-04T19:16:53.461Z,2.26
2022-12-04T19:19:31.908Z,2.28
2022-12-04T19:22:12.601Z,2.31
2022-12-04T19:24:51.170Z,2.28
2022-12-04T19:27:31.158Z,2.29
2022-12-04T19:30:11.287Z,2.27
2022-12-04T19:32:49.736Z,2.28
2022-12-04T19:35:29.100Z,2.29
2022-12-04T19:38:10.766Z,2.28
2022-12-04T19:40:49.792Z,2.29
2022-12-04T19:43:29.408Z,2.30
2022-12-04T19:46:08.472Z,2.27
2022-12-04T19:48:52.336Z,2.28
2022-12-04T19:51:32.947Z,2.28
2022-12-04T19:54:21.686Z,2.28
2022-12-04T19:57:00.717Z,2.27
2022-12-04T19:59:44.517Z,2.26
2022-12-04T20:02:26.438Z,2.27
2022-12-04T20:05:05.295Z,2.26
2022-12-04T20:07:42.994Z,2.24
2022-12-04T20:10:23.485Z,2.26
2022-12-04T20:13:04.664Z,2.23
2022-12-04T20:15:43.484Z,2.24
2022-12-04T20:18:21.777Z,2.25
2022-12-04T20:21:00.978Z,2.27
2022-12-04T20:23:40.216Z,2.27
2022-12-04T20:26:35.382Z,2.27
2022-12-04T20:29:25.730Z,2.26
2022-12-04T20:32:04.609Z,2.27
2022-12-04T20:34:44.027Z,2.25
2022-12-04T20:37:23.176Z,2.25
2022-12-04T20:40:03.037Z,2.23
2022-12-04T20:42:46.987Z,2.26
2022-12-04T20:45:26.487Z,2.22
2022-12-04T20:48:05.260Z,2.23
